createdAt,value
2022-12-20T00:04:04.791Z,1002.43
2022-12-20T00:09:04.806Z,1002.35
2022-12-20T00:14:04.625Z,1002.29
2022-12-20T00:19:04.713Z,1002.11
2022-12-20T00:24:04.467Z,1002.04
2022-12-20T00:29:04.477Z,1001.95
2022-12-20T00:34:04.400Z,1001.97
2022-12-20T00:39:12.940Z,1001.94
2022-12-20T00:44:11.220Z,1001.98
2022-12-20T00:49:15.016Z,1001.95
2022-12-20T00:54:11.602Z,1001.90
2022-12-20T00:59:04.057Z,1001.87
2022-12-20T01:04:11.831Z,1001.93
2022-12-20T01:09:03.943Z,1001.99
2022-12-20T01:14:03.909Z,1001.91
2022-12-20T01:19:03.833Z,1001.83
2022-12-20T01:24:03.763Z,1001.80
2022-12-20T01:29:03.716Z,1001.92
2022-12-20T01:34:03.675Z,1001.91
2022-12-20T01:39:03.502Z,1001.95
2022-12-20T01:44:04.416Z,1001.96
2022-12-20T01:49:06.428Z,1001.89
2022-12-20T01:54:03.396Z,1001.77
2022-12-20T01:59:10.654Z,1001.68
2022-12-20T02:04:10.220Z,1001.67
2022-12-20T02:09:11.038Z,1001.60
2022-12-20T02:14:03.084Z,1001.54
2022-12-20T02:19:03.030Z,1001.34
2022-12-20T02:24:02.912Z,1001.33
2022-12-20T02:29:02.870Z,1001.21
2022-12-20T02:34:02.867Z,1001.21
2022-12-20T02:39:02.779Z,1001.18
2022-12-20T02:44:02.714Z,1001.10
2022-12-20T02:49:06.409Z,1000.99
2022-12-20T02:54:02.610Z,1000.96
2022-12-20T02:59:02.583Z,1000.94
2022-12-20T03:04:02.465Z,1000.98
2022-12-20T03:09:02.474Z,1001.10
2022-12-20T03:14:02.327Z,1001.20
2022-12-20T03:19:02.253Z,1001.24
2022-12-20T03:24:02.180Z,1001.32
2022-12-20T03:29:02.113Z,1001.35
2022-12-20T03:34:09.857Z,1001.29
2022-12-20T03:39:01.944Z,1001.27
2022-12-20T03:44:02.117Z,1001.20
2022-12-20T03:49:04.923Z,1001.23
2022-12-20T03:54:01.753Z,1001.13
2022-12-20T03:59:01.779Z,1001.14
2022-12-20T04:04:01.728Z,1001.10
2022-12-20T04:09:09.093Z,1001.20
2022-12-20T04:15:19.215Z,1000.97
2022-12-20T04:20:19.350Z,1001.05
2022-12-20T04:25:18.982Z,1001.09
2022-12-20T04:30:18.909Z,1001.15
2022-12-20T04:37:31.874Z,1001.01
2022-12-20T04:42:40.215Z,1000.92
2022-12-20T04:47:39.028Z,1000.96
2022-12-20T04:52:43.459Z,1000.83
2022-12-20T04:57:32.412Z,1000.76
2022-12-20T05:02:32.808Z,1000.56
2022-12-20T05:07:35.939Z,1000.58
2022-12-20T05:12:31.252Z,1000.52
2022-12-20T05:17:31.128Z,1000.53
2022-12-20T05:22:31.201Z,1000.47
2022-12-20T05:27:34.069Z,1000.52
2022-12-20T05:32:30.982Z,1000.53
2022-12-20T05:37:30.909Z,1000.38
2022-12-20T05:42:30.832Z,1000.41
2022-12-20T05:47:30.823Z,1000.45
2022-12-20T05:52:30.721Z,1000.50
2022-12-20T05:57:30.712Z,1000.29
2022-12-20T06:02:30.901Z,1000.47
2022-12-20T06:07:30.621Z,1000.61
2022-12-20T06:12:30.540Z,1000.71
2022-12-20T06:17:30.472Z,1000.68
2022-12-20T06:22:38.222Z,1000.73
2022-12-20T06:27:41.120Z,1000.63
2022-12-20T06:32:37.635Z,1000.63
2022-12-20T06:37:37.937Z,1000.69
2022-12-20T06:42:37.574Z,1000.73
2022-12-20T06:47:31.984Z,1000.89
2022-12-20T06:52:32.391Z,1000.88
2022-12-20T06:57:29.872Z,1000.82
2022-12-20T07:02:29.846Z,1000.64
2022-12-20T07:07:44.283Z,1000.67
2022-12-20T07:12:30.791Z,1000.74
2022-12-20T07:17:29.628Z,1000.77
2022-12-20T07:22:29.513Z,1000.67
2022-12-20T07:27:32.491Z,1000.64
2022-12-20T07:32:29.388Z,1000.62
2022-12-20T07:37:29.355Z,1000.42
2022-12-20T07:42:36.126Z,1000.40
2022-12-20T07:48:40.405Z,1000.40
2022-12-20T07:53:40.355Z,1000.38
2022-12-20T07:58:40.211Z,1000.41
2022-12-20T08:03:40.257Z,1000.47
2022-12-20T08:08:40.869Z,1000.50
2022-12-20T08:13:45.978Z,1000.48
2022-12-20T08:18:41.043Z,1000.37
2022-12-20T08:23:39.896Z,1000.32
2022-12-20T08:28:40.044Z,1000.29
2022-12-20T08:33:39.761Z,1000.25
2022-12-20T08:38:42.720Z,1000.21
2022-12-20T08:43:39.658Z,1000.30
2022-12-20T08:48:39.581Z,1000.28
2022-12-20T08:53:39.799Z,1000.40
2022-12-20T08:58:39.436Z,1000.26
2022-12-20T09:03:39.428Z,1000.37
2022-12-20T09:08:39.373Z,1000.21
2022-12-20T09:13:43.619Z,1000.10
2022-12-20T09:18:40.233Z,999.98
2022-12-20T09:23:39.271Z,999.86
2022-12-20T09:28:39.032Z,999.83
2022-12-20T09:33:39.049Z,999.87
2022-12-20T09:38:42.091Z,999.94
2022-12-20T09:43:38.951Z,999.95
2022-12-20T09:48:38.823Z,999.88
2022-12-20T09:53:38.728Z,999.71
2022-12-20T09:58:38.673Z,999.55
2022-12-20T10:03:38.825Z,999.35
2022-12-20T10:08:46.474Z,999.27
2022-12-20T10:13:38.516Z,999.31
2022-12-20T10:18:38.445Z,999.33
2022-12-20T10:23:38.365Z,999.24
2022-12-20T10:28:38.320Z,999.20
2022-12-20T10:33:38.167Z,999.32
2022-12-20T10:38:41.197Z,999.22
2022-12-20T10:43:38.239Z,999.32
2022-12-20T10:48:38.032Z,999.21
2022-12-20T10:53:37.888Z,999.13
2022-12-20T10:58:38.040Z,999.07
2022-12-20T11:03:37.954Z,999.02
2022-12-20T11:08:47.318Z,998.92
2022-12-20T11:13:38.650Z,998.77
2022-12-20T11:18:37.670Z,998.75
2022-12-20T11:23:37.544Z,998.79
2022-12-20T11:28:37.465Z,998.77
2022-12-20T11:33:45.551Z,998.76
2022-12-20T11:39:58.008Z,998.77
2022-12-20T11:45:09.771Z,998.71
2022-12-20T11:49:58.701Z,998.54
2022-12-20T11:54:57.816Z,998.43
2022-12-20T11:59:57.734Z,998.34
2022-12-20T12:04:57.651Z,998.28
2022-12-20T12:09:57.456Z,998.18
2022-12-20T12:14:57.405Z,998.05
2022-12-20T12:19:57.313Z,997.99
2022-12-20T12:24:57.372Z,998.01
2022-12-20T12:30:00.342Z,997.88
2022-12-20T12:34:57.145Z,997.80
2022-12-20T12:39:57.130Z,997.78
2022-12-20T12:44:56.961Z,997.71
2022-12-20T12:49:57.068Z,997.62
2022-12-20T12:54:57.087Z,997.71
2022-12-20T13:00:08.024Z,997.68
2022-12-20T13:05:04.204Z,997.64
2022-12-20T13:09:56.760Z,997.67
2022-12-20T13:14:56.719Z,997.67
2022-12-20T13:19:56.574Z,997.68
2022-12-20T13:24:57.036Z,997.79
2022-12-20T13:29:59.519Z,997.68
2022-12-20T13:34:56.427Z,997.53
2022-12-20T13:41:46.766Z,997.61
2022-12-20T13:46:46.425Z,997.59
2022-12-20T13:51:46.422Z,997.51
2022-12-20T13:56:46.266Z,997.50
2022-12-20T14:01:46.561Z,997.39
2022-12-20T14:06:46.234Z,997.38
2022-12-20T14:11:46.089Z,997.37
2022-12-20T14:16:46.189Z,997.41
2022-12-20T14:21:45.973Z,997.43
2022-12-20T14:26:45.889Z,997.46
2022-12-20T14:31:49.129Z,997.48
2022-12-20T14:36:45.744Z,997.56
2022-12-20T14:41:45.717Z,997.35
2022-12-20T14:46:49.020Z,997.35
2022-12-20T14:51:45.637Z,997.23
2022-12-20T14:56:45.546Z,997.14
2022-12-20T15:01:45.518Z,997.19
2022-12-20T15:06:45.353Z,997.24
2022-12-20T15:11:45.631Z,997.06
2022-12-20T15:16:45.330Z,997.13
2022-12-20T15:21:54.138Z,997.12
2022-12-20T15:26:45.114Z,997.06
2022-12-20T15:43:23.645Z,996.90
2022-12-20T15:48:23.544Z,996.94
2022-12-20T15:53:23.529Z,996.81
2022-12-20T15:58:23.871Z,996.81
2022-12-20T16:03:31.419Z,996.82
2022-12-20T16:08:23.280Z,996.88
2022-12-20T16:13:23.325Z,996.86
2022-12-20T16:19:41.496Z,996.68
2022-12-20T16:25:59.728Z,996.77
2022-12-20T16:31:11.183Z,996.74
2022-12-20T16:35:58.084Z,996.68
2022-12-20T16:40:58.129Z,996.68
2022-12-20T16:45:57.940Z,996.58
2022-12-20T16:50:57.998Z,996.55
2022-12-20T16:55:58.059Z,996.59
2022-12-20T17:02:48.618Z,996.65
2022-12-20T17:12:47.631Z,996.73
2022-12-20T17:17:55.619Z,996.73
2022-12-20T17:22:47.459Z,996.91
2022-12-20T17:27:47.382Z,996.80
2022-12-20T17:32:47.256Z,996.89
2022-12-20T17:37:47.172Z,996.71
2022-12-20T17:42:47.338Z,996.68
2022-12-20T17:47:47.026Z,996.64
2022-12-20T17:52:47.087Z,996.71
2022-12-20T17:57:46.936Z,996.76
2022-12-20T18:02:50.089Z,996.80
2022-12-20T18:07:46.797Z,996.82
2022-12-20T18:12:46.912Z,996.86
2022-12-20T18:17:46.616Z,996.87
2022-12-20T18:22:46.750Z,996.78
2022-12-20T18:27:46.504Z,996.57
2022-12-20T18:32:46.719Z,996.50
2022-12-20T18:37:46.315Z,996.55
2022-12-20T18:42:46.332Z,996.24
2022-12-20T18:47:46.413Z,996.28
2022-12-20T18:52:46.319Z,996.40
2022-12-20T18:57:46.491Z,996.50
2022-12-20T19:02:49.535Z,996.55
2022-12-20T19:07:46.024Z,996.51
2022-12-20T19:12:53.488Z,996.45
2022-12-20T19:17:45.816Z,996.36
2022-12-20T19:22:45.871Z,996.25
2022-12-20T19:27:45.862Z,996.36
2022-12-20T19:32:46.000Z,996.30
2022-12-20T19:37:45.619Z,996.32
2022-12-20T19:42:56.590Z,996.17
2022-12-20T19:47:52.933Z,996.13
2022-12-20T19:52:53.896Z,996.08
2022-12-20T20:09:18.200Z,996.12
2022-12-20T20:14:17.908Z,996.07
2022-12-20T20:20:28.937Z,996.01
2022-12-20T20:25:28.915Z,995.93
2022-12-20T20:30:28.896Z,996.02
2022-12-20T20:35:28.819Z,995.97
2022-12-20T20:40:28.756Z,995.93
2022-12-20T20:45:28.735Z,995.99
2022-12-20T20:50:28.586Z,995.96
2022-12-20T20:55:28.570Z,995.94
2022-12-20T21:00:28.395Z,995.93
2022-12-20T21:10:32.789Z,995.87
2022-12-20T21:15:28.201Z,995.77
2022-12-20T21:20:29.065Z,995.67
2022-12-20T21:25:28.203Z,995.71
2022-12-20T21:30:28.127Z,995.75
2022-12-20T21:35:28.030Z,995.77
2022-12-20T21:40:27.924Z,995.67
2022-12-20T21:48:24.309Z,995.74
2022-12-20T21:57:34.479Z,995.75
2022-12-20T22:04:46.257Z,995.74
2022-12-20T22:11:40.268Z,995.75
2022-12-20T22:16:40.043Z,995.78
2022-12-20T22:21:41.128Z,995.77
2022-12-20T22:26:39.959Z,995.83
2022-12-20T22:31:40.103Z,995.75
2022-12-20T22:36:39.739Z,995.76
2022-12-20T22:41:39.804Z,995.76
2022-12-20T22:46:39.670Z,995.65
2022-12-20T22:51:39.574Z,995.61
2022-12-20T22:56:39.824Z,995.63
2022-12-20T23:01:43.235Z,995.47
2022-12-20T23:11:02.587Z,995.36
2022-12-20T23:16:02.493Z,995.38
2022-12-20T23:21:02.387Z,995.30
2022-12-20T23:26:02.203Z,995.29
2022-12-20T23:31:02.301Z,995.25
2022-12-20T23:36:02.181Z,995.17
2022-12-20T23:41:09.693Z,995.22
2022-12-20T23:46:02.290Z,995.29
2022-12-20T23:51:02.110Z,995.20
2022-12-20T23:56:01.790Z,995.06
